Time,TemperatureF,DewpointF,PressureIn,WindDirection,WindDirectionDegrees,WindSpeedMPH,WindSpeedGustMPH,Humidity,HourlyPrecipIn,Conditions,Clouds,dailyrainin,SoftwareType,DateUTC
2013-01-11 18:00:00,43.2,35.8,0.00,NE,48,0.0,0.0,75,0.00,,,0.00,Weather View 32 v70,2013-01-11 23:00:00,
2013-01-11 18:05:00,43.2,35.8,0.00,NE,48,0.0,0.0,75,0.00,,,0.00,Weather View 32 v70,2013-01-11 23:05:00,
2013-01-11 18:10:00,43.2,35.8,0.00,NE,48,0.0,0.0,75,0.00,,,0.00,Weather View 32 v70,2013-01-11 23:10:00,
2013-01-11 18:15:00,43.2,35.8,0.00,NE,48,0.0,0.0,75,0.00,,,0.00,Weather View 32 v70,2013-01-11 23:15:00,
2013-01-11 18:20:00,43.2,35.8,0.00,NE,48,0.0,0.0,75,0.00,,,0.00,Weather View 32 v70,2013-01-11 23:20:00,
2013-01-11 18:25:00,43.2,36.1,0.00,NE,48,0.0,0.0,76,0.00,,,0.00,Weather View 32 v70,2013-01-11 23:25:00,
2013-01-11 18:30:00,43.2,36.1,0.00,NE,48,0.0,0.0,76,0.00,,,0.00,Weather View 32 v70,2013-01-11 23:30:00,
2013-01-11 18:35:00,43.2,36.1,0.00,NE,48,0.0,0.0,76,0.00,,,0.00,Weather View 32 v70,2013-01-11 23:35:00,
2013-01-11 18:40:00,43.2,36.1,0.00,NE,48,0.0,0.0,76,0.00,,,0.00,Weather View 32 v70,2013-01-11 23:40:00,
2013-01-11 18:45:00,43.2,36.1,0.00,NE,48,0.0,0.0,76,0.00,,,0.00,Weather View 32 v70,2013-01-11 23:45:00,
2013-01-11 18:55:00,43.2,36.1,0.00,NE,48,0.0,0.0,76,0.00,,,0.00,Weather View 32 v70,2013-01-11 23:55:00,
2013-01-11 19:00:00,43.2,36.1,0.00,NE,48,0.0,0.0,76,0.00,,,0.00,Weather View 32 v70,2013-01-12 00:00:00,
2013-01-11 19:05:00,43.2,36.1,0.00,NE,48,0.0,0.0,76,0.00,,,0.00,Weather View 32 v70,2013-01-12 00:05:00,
2013-01-11 19:10:00,43.2,36.1,0.00,NE,48,0.0,0.0,76,0.00,,,0.00,Weather View 32 v70,2013-01-12 00:10:00,
2013-01-11 19:15:00,43.2,36.1,0.00,NE,48,0.0,0.0,76,0.00,,,0.00,Weather View 32 v70,2013-01-12 00:15:00,
2013-01-11 19:20:00,43.2,36.1,0.00,NE,48,0.0,0.0,76,0.00,,,0.00,Weather View 32 v70,2013-01-12 00:20:00,
2013-01-11 19:25:00,43.3,36.3,0.00,NE,48,0.0,0.0,76,0.00,,,0.00,Weather View 32 v70,2013-01-12 00:25:00,
2013-01-11 19:30:00,43.3,36.3,0.00,NE,48,0.0,0.0,76,0.00,,,0.00,Weather View 32 v70,2013-01-12 00:30:00,
2013-01-11 19:35:00,43.5,36.4,0.00,NE,48,0.0,0.0,76,0.00,,,0.00,Weather View 32 v70,2013-01-12 00:35:00,
2013-01-11 19:40:00,43.5,36.8,0.00,NE,48,0.0,0.0,77,0.00,,,0.00,Weather View 32 v70,2013-01-12 00:40:00,
2013-01-11 19:45:00,43.5,36.8,0.00,NE,48,0.0,0.0,77,0.00,,,0.00,Weather View 32 v70,2013-01-12 00:45:00,
2013-01-11 19:50:00,43.5,36.8,0.00,NE,48,0.0,0.0,77,0.00,,,0.00,Weather View 32 v70,2013-01-12 00:50:00,
2013-01-11 19:55:00,43.7,37.0,0.00,NE,48,0.0,0.0,77,0.00,,,0.00,Weather View 32 v70,2013-01-12 00:55:00,
2013-01-11 20:00:00,43.7,37.0,0.00,ENE,59,0.0,3.0,77,0.00,,,0.00,Weather View 32 v70,2013-01-12 01:00:00,
2013-01-11 20:05:00,43.7,37.0,0.00,ENE,59,0.0,3.0,77,0.00,,,0.00,Weather View 32 v70,2013-01-12 01:05:00,
2013-01-11 20:10:00,43.7,37.0,0.00,ENE,59,0.0,3.0,77,0.00,,,0.00,Weather View 32 v70,2013-01-12 01:10:00,
2013-01-11 20:15:00,43.5,36.8,0.00,ENE,59,0.0,3.0,77,0.00,,,0.00,Weather View 32 v70,2013-01-12 01:15:00,
2013-01-11 20:20:00,43.5,36.8,0.00,NE,48,0.0,3.0,77,0.00,,,0.00,Weather View 32 v70,2013-01-12 01:20:00,
2013-01-11 20:25:00,43.3,36.6,0.00,NE,48,0.0,3.0,77,0.00,,,0.00,Weather View 32 v70,2013-01-12 01:25:00,
2013-01-11 20:31:00,43.2,36.4,0.00,NE,48,0.0,3.0,77,0.00,,,0.00,Weather View 32 v70,2013-01-12 01:31:00,
2013-01-11 20:36:00,43.0,36.3,0.00,NE,48,0.0,3.0,77,0.00,,,0.00,Weather View 32 v70,2013-01-12 01:36:00,
2013-01-11 20:41:00,42.8,36.1,0.00,NE,48,0.0,3.0,77,0.00,,,0.00,Weather View 32 v70,2013-01-12 01:41:00,
2013-01-11 20:46:00,42.6,36.2,0.00,East,91,0.0,3.0,78,0.00,,,0.00,Weather View 32 v70,2013-01-12 01:46:00,
2013-01-11 20:51:00,42.4,36.1,0.00,East,91,0.0,3.0,78,0.00,,,0.00,Weather View 32 v70,2013-01-12 01:51:00,